sensor_id;sensor_type;location;lat;lon;timestamp;temperature;humidity
53294;DHT22;39181;53.440;5.644;2022-08-19T00:01:24;15.30;99.90
53294;DHT22;39181;53.440;5.644;2022-08-19T00:03:50;15.30;99.90
53294;DHT22;39181;53.440;5.644;2022-08-19T00:06:16;15.30;99.90
53294;DHT22;39181;53.440;5.644;2022-08-19T00:08:42;15.30;99.90
53294;DHT22;39181;53.440;5.644;2022-08-19T00:11:08;15.40;99.90
53294;DHT22;39181;53.440;5.644;2022-08-19T00:13:34;15.30;99.90
53294;DHT22;39181;53.440;5.644;2022-08-19T00:16:00;15.40;99.90
53294;DHT22;39181;53.440;5.644;2022-08-19T00:18:26;15.40;99.90
53294;DHT22;39181;53.440;5.644;2022-08-19T00:20:52;15.40;99.90
53294;DHT22;39181;53.440;5.644;2022-08-19T00:23:18;15.40;99.90
53294;DHT22;39181;53.440;5.644;2022-08-19T00:25:44;15.40;99.90
53294;DHT22;39181;53.440;5.644;2022-08-19T00:28:10;15.40;99.90
53294;DHT22;39181;53.440;5.644;2022-08-19T00:30:35;15.50;99.90
53294;DHT22;39181;53.440;5.644;2022-08-19T00:33:02;15.40;99.90
53294;DHT22;39181;53.440;5.644;2022-08-19T00:35:28;15.40;99.90
53294;DHT22;39181;53.440;5.644;2022-08-19T00:37:54;15.40;99.90
53294;DHT22;39181;53.440;5.644;2022-08-19T00:40:21;15.40;99.90
53294;DHT22;39181;53.440;5.644;2022-08-19T00:42:47;15.40;99.90
53294;DHT22;39181;53.440;5.644;2022-08-19T00:45:19;15.40;99.90
53294;DHT22;39181;53.440;5.644;2022-08-19T00:47:46;15.40;99.90
53294;DHT22;39181;53.440;5.644;2022-08-19T00:50:15;15.30;99.90
53294;DHT22;39181;53.440;5.644;2022-08-19T00:52:44;15.30;99.90
53294;DHT22;39181;53.440;5.644;2022-08-19T00:55:20;15.30;99.90
53294;DHT22;39181;53.440;5.644;2022-08-19T00:57:51;15.30;99.90
53294;DHT22;39181;53.440;5.644;2022-08-19T01:00:18;15.30;99.90
53294;DHT22;39181;53.440;5.644;2022-08-19T01:02:44;15.30;99.90
53294;DHT22;39181;53.440;5.644;2022-08-19T01:05:13;15.30;99.90
53294;DHT22;39181;53.440;5.644;2022-08-19T01:07:41;15.30;99.90
53294;DHT22;39181;53.440;5.644;2022-08-19T01:10:11;15.30;99.90
53294;DHT22;39181;53.440;5.644;2022-08-19T01:12:39;15.20;99.90
53294;DHT22;39181;53.440;5.644;2022-08-19T01:15:11;15.20;99.90
53294;DHT22;39181;53.440;5.644;2022-08-19T01:17:39;15.30;99.90
53294;DHT22;39181;53.440;5.644;2022-08-19T01:20:07;15.20;99.90
53294;DHT22;39181;53.440;5.644;2022-08-19T01:22:44;15.20;99.90
53294;DHT22;39181;53.440;5.644;2022-08-19T01:25:10;15.20;99.90
53294;DHT22;39181;53.440;5.644;2022-08-19T01:27:47;15.20;99.90
53294;DHT22;39181;53.440;5.644;2022-08-19T01:30:22;15.20;99.90
53294;DHT22;39181;53.440;5.644;2022-08-19T01:32:49;15.10;99.90
53294;DHT22;39181;53.440;5.644;2022-08-19T01:35:15;15.20;99.90
53294;DHT22;39181;53.440;5.644;2022-08-19T01:37:59;15.10;99.90
53294;DHT22;39181;53.440;5.644;2022-08-19T01:40:28;15.20;99.90
53294;DHT22;39181;53.440;5.644;2022-08-19T01:42:55;15.20;99.90
53294;DHT22;39181;53.440;5.644;2022-08-19T01:45:23;15.20;99.90
53294;DHT22;39181;53.440;5.644;2022-08-19T01:47:49;15.20;99.90
53294;DHT22;39181;53.440;5.644;2022-08-19T01:50:15;15.20;99.90
53294;DHT22;39181;53.440;5.644;2022-08-19T01:52:43;15.20;99.90
53294;DHT22;39181;53.440;5.644;2022-08-19T01:55:13;15.30;99.90
53294;DHT22;39181;53.440;5.644;2022-08-19T01:57:40;15.20;99.90
53294;DHT22;39181;53.440;5.644;2022-08-19T02:00:11;15.30;99.90
53294;DHT22;39181;53.440;5.644;2022-08-19T02:02:37;15.30;99.90
53294;DHT22;39181;53.440;5.644;2022-08-19T02:05:03;15.30;99.90
53294;DHT22;39181;53.440;5.644;2022-08-19T02:07:29;15.30;99.90
53294;DHT22;39181;53.440;5.644;2022-08-19T02:09:55;15.30;99.90
53294;DHT22;39181;53.440;5.644;2022-08-19T02:12:21;15.30;99.90
53294;DHT22;39181;53.440;5.644;2022-08-19T02:14:47;15.30;99.90
53294;DHT22;39181;53.440;5.644;2022-08-19T02:17:13;15.30;99.90
53294;DHT22;39181;53.440;5.644;2022-08-19T02:19:38;15.30;99.90
53294;DHT22;39181;53.440;5.644;2022-08-19T02:22:04;15.20;99.90
53294;DHT22;39181;53.440;5.644;2022-08-19T02:24:31;15.30;99.90
53294;DHT22;39181;53.440;5.644;2022-08-19T02:26:56;15.30;99.90
53294;DHT22;39181;53.440;5.644;2022-08-19T02:29:22;15.30;99.90
53294;DHT22;39181;53.440;5.644;2022-08-19T02:31:48;15.30;99.90
53294;DHT22;39181;53.440;5.644;2022-08-19T02:34:13;15.30;99.90
53294;DHT22;39181;53.440;5.644;2022-08-19T02:36:39;15.30;99.90
53294;DHT22;39181;53.440;5.644;2022-08-19T02:39:05;15.30;99.90
53294;DHT22;39181;53.440;5.644;2022-08-19T02:41:32;15.50;99.90
53294;DHT22;39181;53.440;5.644;2022-08-19T02:44:00;15.30;99.90
53294;DHT22;39181;53.440;5.644;2022-08-19T02:46:28;15.30;99.90
53294;DHT22;39181;53.440;5.644;2022-08-19T02:48:57;15.40;99.90
53294;DHT22;39181;53.440;5.644;2022-08-19T02:51:27;15.30;99.90
53294;DHT22;39181;53.440;5.644;2022-08-19T02:53:53;15.30;99.90
53294;DHT22;39181;53.440;5.644;2022-08-19T02:56:20;15.40;99.90
53294;DHT22;39181;53.440;5.644;2022-08-19T02:58:47;15.40;99.90
53294;DHT22;39181;53.440;5.644;2022-08-19T03:01:24;15.40;99.90
53294;DHT22;39181;53.440;5.644;2022-08-19T03:03:50;15.40;99.90
53294;DHT22;39181;53.440;5.644;2022-08-19T03:06:17;15.40;99.90
53294;DHT22;39181;53.440;5.644;2022-08-19T03:08:44;15.40;99.90
53294;DHT22;39181;53.440;5.644;2022-08-19T03:11:31;15.40;99.90
53294;DHT22;39181;53.440;5.644;2022-08-19T03:13:58;15.40;99.90
53294;DHT22;39181;53.440;5.644;2022-08-19T03:16:25;15.40;99.90
53294;DHT22;39181;53.440;5.644;2022-08-19T03:18:52;15.40;99.90
53294;DHT22;39181;53.440;5.644;2022-08-19T03:21:20;15.40;99.90
53294;DHT22;39181;53.440;5.644;2022-08-19T03:23:46;15.50;99.90
53294;DHT22;39181;53.440;5.644;2022-08-19T03:26:12;15.50;99.90
53294;DHT22;39181;53.440;5.644;2022-08-19T03:28:39;15.50;99.90
53294;DHT22;39181;53.440;5.644;2022-08-19T03:31:09;15.50;99.90
53294;DHT22;39181;53.440;5.644;2022-08-19T03:33:35;15.50;99.90
53294;DHT22;39181;53.440;5.644;2022-08-19T03:36:06;15.50;99.90
53294;DHT22;39181;53.440;5.644;2022-08-19T03:38:33;15.50;99.90
53294;DHT22;39181;53.440;5.644;2022-08-19T03:41:02;15.60;99.90
53294;DHT22;39181;53.440;5.644;2022-08-19T03:43:28;15.60;99.90
53294;DHT22;39181;53.440;5.644;2022-08-19T03:46:02;15.60;99.90
53294;DHT22;39181;53.440;5.644;2022-08-19T03:48:29;15.60;99.90
53294;DHT22;39181;53.440;5.644;2022-08-19T03:50:56;15.60;99.90
53294;DHT22;39181;53.440;5.644;2022-08-19T03:53:22;15.60;99.90
53294;DHT22;39181;53.440;5.644;2022-08-19T03:55:48;15.60;99.90
53294;DHT22;39181;53.440;5.644;2022-08-19T03:58:13;15.60;99.90
53294;DHT22;39181;53.440;5.644;2022-08-19T04:00:42;15.60;99.90
53294;DHT22;39181;53.440;5.644;2022-08-19T04:03:07;15.60;99.90
53294;DHT22;39181;53.440;5.644;2022-08-19T04:05:33;15.60;99.90
53294;DHT22;39181;53.440;5.644;2022-08-19T04:07:58;15.70;99.90
53294;DHT22;39181;53.440;5.644;2022-08-19T04:10:26;15.70;99.90
53294;DHT22;39181;53.440;5.644;2022-08-19T04:12:52;15.70;99.90
53294;DHT22;39181;53.440;5.644;2022-08-19T04:15:18;15.70;99.90
53294;DHT22;39181;53.440;5.644;2022-08-19T04:17:44;15.70;99.90
53294;DHT22;39181;53.440;5.644;2022-08-19T04:20:10;15.80;99.90
53294;DHT22;39181;53.440;5.644;2022-08-19T04:22:35;15.70;99.90
53294;DHT22;39181;53.440;5.644;2022-08-19T04:25:01;15.80;99.90
53294;DHT22;39181;53.440;5.644;2022-08-19T04:27:26;15.80;99.90
53294;DHT22;39181;53.440;5.644;2022-08-19T04:29:52;15.80;99.90
53294;DHT22;39181;53.440;5.644;2022-08-19T04:32:20;15.80;99.90
53294;DHT22;39181;53.440;5.644;2022-08-19T04:34:46;15.80;99.90
53294;DHT22;39181;53.440;5.644;2022-08-19T04:37:11;15.80;99.90
53294;DHT22;39181;53.440;5.644;2022-08-19T04:39:38;15.90;99.90
53294;DHT22;39181;53.440;5.644;2022-08-19T04:42:23;15.90;99.90
53294;DHT22;39181;53.440;5.644;2022-08-19T04:45:10;16.00;99.90
53294;DHT22;39181;53.440;5.644;2022-08-19T04:47:37;16.00;99.90
53294;DHT22;39181;53.440;5.644;2022-08-19T04:50:03;16.00;99.90
53294;DHT22;39181;53.440;5.644;2022-08-19T04:52:30;16.00;99.90
53294;DHT22;39181;53.440;5.644;2022-08-19T04:54:57;16.10;99.90
53294;DHT22;39181;53.440;5.644;2022-08-19T04:57:23;16.10;99.90
53294;DHT22;39181;53.440;5.644;2022-08-19T04:59:53;16.20;99.90
53294;DHT22;39181;53.440;5.644;2022-08-19T05:02:18;16.20;99.90
53294;DHT22;39181;53.440;5.644;2022-08-19T05:04:44;16.30;99.90
53294;DHT22;39181;53.440;5.644;2022-08-19T05:07:09;16.30;99.90
53294;DHT22;39181;53.440;5.644;2022-08-19T05:09:35;16.40;99.90
53294;DHT22;39181;53.440;5.644;2022-08-19T05:12:01;16.40;99.90
53294;DHT22;39181;53.440;5.644;2022-08-19T05:14:27;16.50;99.90
53294;DHT22;39181;53.440;5.644;2022-08-19T05:16:52;16.50;99.90
53294;DHT22;39181;53.440;5.644;2022-08-19T05:19:18;16.60;99.90
53294;DHT22;39181;53.440;5.644;2022-08-19T05:22:02;16.60;99.90
53294;DHT22;39181;53.440;5.644;2022-08-19T05:24:46;16.70;99.90
53294;DHT22;39181;53.440;5.644;2022-08-19T05:27:12;16.70;99.90
53294;DHT22;39181;53.440;5.644;2022-08-19T05:29:37;16.90;99.90
53294;DHT22;39181;53.440;5.644;2022-08-19T05:32:05;16.90;99.90
53294;DHT22;39181;53.440;5.644;2022-08-19T05:34:33;16.90;99.90
53294;DHT22;39181;53.440;5.644;2022-08-19T05:37:01;16.90;99.90
53294;DHT22;39181;53.440;5.644;2022-08-19T05:39:30;17.00;99.90
53294;DHT22;39181;53.440;5.644;2022-08-19T05:41:59;17.10;99.90
53294;DHT22;39181;53.440;5.644;2022-08-19T05:44:26;17.20;99.90
53294;DHT22;39181;53.440;5.644;2022-08-19T05:46:53;17.20;99.90
53294;DHT22;39181;53.440;5.644;2022-08-19T05:49:21;17.30;99.90
53294;DHT22;39181;53.440;5.644;2022-08-19T05:51:47;17.40;99.90
53294;DHT22;39181;53.440;5.644;2022-08-19T05:54:13;17.50;99.90
53294;DHT22;39181;53.440;5.644;2022-08-19T05:56:40;17.60;99.90
53294;DHT22;39181;53.440;5.644;2022-08-19T05:59:07;17.70;99.90
53294;DHT22;39181;53.440;5.644;2022-08-19T06:01:38;17.70;99.90
53294;DHT22;39181;53.440;5.644;2022-08-19T06:04:03;17.90;99.90
53294;DHT22;39181;53.440;5.644;2022-08-19T06:06:29;18.00;99.90
53294;DHT22;39181;53.440;5.644;2022-08-19T06:08:55;18.00;99.90
53294;DHT22;39181;53.440;5.644;2022-08-19T06:11:24;18.20;99.90
53294;DHT22;39181;53.440;5.644;2022-08-19T06:13:52;18.20;99.90
53294;DHT22;39181;53.440;5.644;2022-08-19T06:16:21;18.20;99.90
53294;DHT22;39181;53.440;5.644;2022-08-19T06:18:52;18.30;99.90
53294;DHT22;39181;53.440;5.644;2022-08-19T06:21:22;18.40;99.90
53294;DHT22;39181;53.440;5.644;2022-08-19T06:23:48;18.40;99.90
53294;DHT22;39181;53.440;5.644;2022-08-19T06:26:16;18.50;99.90
53294;DHT22;39181;53.440;5.644;2022-08-19T06:28:42;18.50;99.90
53294;DHT22;39181;53.440;5.644;2022-08-19T06:31:19;18.50;99.90
53294;DHT22;39181;53.440;5.644;2022-08-19T06:33:46;18.60;99.90
53294;DHT22;39181;53.440;5.644;2022-08-19T06:36:21;18.70;99.90
53294;DHT22;39181;53.440;5.644;2022-08-19T06:38:47;18.90;99.90
53294;DHT22;39181;53.440;5.644;2022-08-19T06:41:13;18.90;99.90
53294;DHT22;39181;53.440;5.644;2022-08-19T06:43:38;19.00;99.90
53294;DHT22;39181;53.440;5.644;2022-08-19T06:46:13;19.00;99.90
53294;DHT22;39181;53.440;5.644;2022-08-19T06:48:39;19.20;99.90
53294;DHT22;39181;53.440;5.644;2022-08-19T06:51:05;19.20;99.90
53294;DHT22;39181;53.440;5.644;2022-08-19T06:53:32;19.30;99.90
53294;DHT22;39181;53.440;5.644;2022-08-19T06:55:57;19.40;99.90
53294;DHT22;39181;53.440;5.644;2022-08-19T06:58:30;19.50;99.90
53294;DHT22;39181;53.440;5.644;2022-08-19T07:01:03;19.60;99.90
53294;DHT22;39181;53.440;5.644;2022-08-19T07:03:30;19.70;99.90
53294;DHT22;39181;53.440;5.644;2022-08-19T07:05:57;19.80;99.90
53294;DHT22;39181;53.440;5.644;2022-08-19T07:08:24;19.90;99.90
53294;DHT22;39181;53.440;5.644;2022-08-19T07:10:52;19.90;99.90
53294;DHT22;39181;53.440;5.644;2022-08-19T07:13:17;20.00;99.90
53294;DHT22;39181;53.440;5.644;2022-08-19T07:15:44;20.20;99.90
53294;DHT22;39181;53.440;5.644;2022-08-19T07:18:11;20.30;99.90
53294;DHT22;39181;53.440;5.644;2022-08-19T07:20:37;20.30;99.90
53294;DHT22;39181;53.440;5.644;2022-08-19T07:23:04;20.50;99.90
53294;DHT22;39181;53.440;5.644;2022-08-19T07:25:29;20.60;99.90
53294;DHT22;39181;53.440;5.644;2022-08-19T07:27:55;20.70;99.90
53294;DHT22;39181;53.440;5.644;2022-08-19T07:30:20;20.90;99.90
53294;DHT22;39181;53.440;5.644;2022-08-19T07:32:47;21.00;99.90
53294;DHT22;39181;53.440;5.644;2022-08-19T07:35:13;21.10;99.90
53294;DHT22;39181;53.440;5.644;2022-08-19T07:37:39;21.20;99.90
53294;DHT22;39181;53.440;5.644;2022-08-19T07:40:09;21.60;99.90
53294;DHT22;39181;53.440;5.644;2022-08-19T07:42:35;21.50;99.90
53294;DHT22;39181;53.440;5.644;2022-08-19T07:45:01;21.70;99.90
53294;DHT22;39181;53.440;5.644;2022-08-19T07:47:26;21.80;99.90
53294;DHT22;39181;53.440;5.644;2022-08-19T07:49:54;22.00;99.90
53294;DHT22;39181;53.440;5.644;2022-08-19T07:52:19;22.10;99.90
53294;DHT22;39181;53.440;5.644;2022-08-19T07:54:45;22.20;99.90
53294;DHT22;39181;53.440;5.644;2022-08-19T07:57:11;22.40;99.90
53294;DHT22;39181;53.440;5.644;2022-08-19T07:59:36;22.60;99.90
53294;DHT22;39181;53.440;5.644;2022-08-19T08:02:03;22.80;99.90
53294;DHT22;39181;53.440;5.644;2022-08-19T08:04:30;22.80;99.90
53294;DHT22;39181;53.440;5.644;2022-08-19T08:07:14;23.00;99.90
53294;DHT22;39181;53.440;5.644;2022-08-19T08:09:59;23.20;99.90
53294;DHT22;39181;53.440;5.644;2022-08-19T08:12:29;23.30;99.90
53294;DHT22;39181;53.440;5.644;2022-08-19T08:14:58;23.40;99.90
53294;DHT22;39181;53.440;5.644;2022-08-19T08:17:28;23.50;99.90
53294;DHT22;39181;53.440;5.644;2022-08-19T08:19:55;23.70;99.90
53294;DHT22;39181;53.440;5.644;2022-08-19T08:22:22;23.70;99.90
53294;DHT22;39181;53.440;5.644;2022-08-19T08:25:19;23.70;99.90
53294;DHT22;39181;53.440;5.644;2022-08-19T08:27:46;23.90;99.90
53294;DHT22;39181;53.440;5.644;2022-08-19T08:30:23;24.00;99.90
53294;DHT22;39181;53.440;5.644;2022-08-19T08:32:49;24.00;99.90
53294;DHT22;39181;53.440;5.644;2022-08-19T08:35:17;24.10;99.90
53294;DHT22;39181;53.440;5.644;2022-08-19T08:37:45;24.20;99.90
53294;DHT22;39181;53.440;5.644;2022-08-19T08:43:03;24.50;99.90
53294;DHT22;39181;53.440;5.644;2022-08-19T08:45:32;24.50;99.90
53294;DHT22;39181;53.440;5.644;2022-08-19T08:48:10;24.60;99.90
53294;DHT22;39181;53.440;5.644;2022-08-19T08:50:42;24.80;99.90
53294;DHT22;39181;53.440;5.644;2022-08-19T08:53:09;24.90;99.90
53294;DHT22;39181;53.440;5.644;2022-08-19T08:55:36;24.90;99.90
53294;DHT22;39181;53.440;5.644;2022-08-19T08:58:09;25.20;99.90
53294;DHT22;39181;53.440;5.644;2022-08-19T09:00:48;25.30;99.90
53294;DHT22;39181;53.440;5.644;2022-08-19T09:03:22;25.40;99.90
53294;DHT22;39181;53.440;5.644;2022-08-19T09:11:04;25.30;99.90
53294;DHT22;39181;53.440;5.644;2022-08-19T09:13:44;25.30;99.90
53294;DHT22;39181;53.440;5.644;2022-08-19T09:16:19;25.10;99.90
53294;DHT22;39181;53.440;5.644;2022-08-19T09:18:55;25.20;99.90
53294;DHT22;39181;53.440;5.644;2022-08-19T09:21:24;25.20;99.90
53294;DHT22;39181;53.440;5.644;2022-08-19T09:23:51;25.30;99.90
53294;DHT22;39181;53.440;5.644;2022-08-19T09:26:18;25.20;99.90
53294;DHT22;39181;53.440;5.644;2022-08-19T09:28:47;25.40;99.90
53294;DHT22;39181;53.440;5.644;2022-08-19T09:31:16;25.40;99.90
53294;DHT22;39181;53.440;5.644;2022-08-19T09:33:42;25.60;99.90
53294;DHT22;39181;53.440;5.644;2022-08-19T09:36:14;25.70;99.90
53294;DHT22;39181;53.440;5.644;2022-08-19T09:38:40;25.90;99.90
53294;DHT22;39181;53.440;5.644;2022-08-19T09:41:12;25.90;99.90
53294;DHT22;39181;53.440;5.644;2022-08-19T09:43:39;26.00;99.90
53294;DHT22;39181;53.440;5.644;2022-08-19T09:46:07;25.80;99.90
53294;DHT22;39181;53.440;5.644;2022-08-19T09:48:35;25.90;99.90
53294;DHT22;39181;53.440;5.644;2022-08-19T09:53:29;26.20;99.90
53294;DHT22;39181;53.440;5.644;2022-08-19T09:55:55;26.30;99.90
53294;DHT22;39181;53.440;5.644;2022-08-19T09:58:21;26.50;99.90
53294;DHT22;39181;53.440;5.644;2022-08-19T10:00:48;26.60;99.90
53294;DHT22;39181;53.440;5.644;2022-08-19T10:03:13;26.80;99.90
53294;DHT22;39181;53.440;5.644;2022-08-19T10:05:39;27.10;99.90
53294;DHT22;39181;53.440;5.644;2022-08-19T10:08:15;27.10;99.90
53294;DHT22;39181;53.440;5.644;2022-08-19T10:10:41;27.20;99.90
53294;DHT22;39181;53.440;5.644;2022-08-19T10:13:10;27.20;99.90
53294;DHT22;39181;53.440;5.644;2022-08-19T10:15:36;27.30;99.90
53294;DHT22;39181;53.440;5.644;2022-08-19T10:18:05;27.30;99.90
53294;DHT22;39181;53.440;5.644;2022-08-19T10:20:30;27.40;99.90
53294;DHT22;39181;53.440;5.644;2022-08-19T10:22:56;27.30;99.90
53294;DHT22;39181;53.440;5.644;2022-08-19T10:25:21;27.30;99.90
53294;DHT22;39181;53.440;5.644;2022-08-19T10:27:47;27.40;99.90
53294;DHT22;39181;53.440;5.644;2022-08-19T10:30:13;27.00;99.90
53294;DHT22;39181;53.440;5.644;2022-08-19T10:32:38;26.90;99.90
53294;DHT22;39181;53.440;5.644;2022-08-19T10:35:05;27.00;99.90
53294;DHT22;39181;53.440;5.644;2022-08-19T10:37:36;27.20;99.90
53294;DHT22;39181;53.440;5.644;2022-08-19T10:40:04;27.30;99.90
53294;DHT22;39181;53.440;5.644;2022-08-19T10:42:31;27.50;99.90
53294;DHT22;39181;53.440;5.644;2022-08-19T10:44:56;27.80;99.90
53294;DHT22;39181;53.440;5.644;2022-08-19T10:47:22;27.50;99.90
53294;DHT22;39181;53.440;5.644;2022-08-19T10:49:49;27.20;99.90
53294;DHT22;39181;53.440;5.644;2022-08-19T10:52:33;27.20;99.90
53294;DHT22;39181;53.440;5.644;2022-08-19T10:55:03;27.00;99.90
53294;DHT22;39181;53.440;5.644;2022-08-19T10:57:48;26.80;99.90
53294;DHT22;39181;53.440;5.644;2022-08-19T11:00:13;26.80;99.90
53294;DHT22;39181;53.440;5.644;2022-08-19T11:02:39;26.70;99.90
53294;DHT22;39181;53.440;5.644;2022-08-19T11:05:07;26.50;99.90
53294;DHT22;39181;53.440;5.644;2022-08-19T11:07:32;26.60;99.90
53294;DHT22;39181;53.440;5.644;2022-08-19T11:09:58;26.80;99.90
53294;DHT22;39181;53.440;5.644;2022-08-19T11:12:24;27.00;99.90
53294;DHT22;39181;53.440;5.644;2022-08-19T11:14:50;27.10;99.90
53294;DHT22;39181;53.440;5.644;2022-08-19T11:17:16;27.30;99.90
53294;DHT22;39181;53.440;5.644;2022-08-19T11:19:41;27.30;99.90
53294;DHT22;39181;53.440;5.644;2022-08-19T11:22:08;27.40;99.90
53294;DHT22;39181;53.440;5.644;2022-08-19T11:24:35;27.40;99.90
53294;DHT22;39181;53.440;5.644;2022-08-19T11:27:04;27.20;99.90
53294;DHT22;39181;53.440;5.644;2022-08-19T11:29:31;27.10;99.90
53294;DHT22;39181;53.440;5.644;2022-08-19T11:31:56;27.00;99.90
53294;DHT22;39181;53.440;5.644;2022-08-19T11:34:24;27.00;99.90
53294;DHT22;39181;53.440;5.644;2022-08-19T11:36:51;27.00;99.90
53294;DHT22;39181;53.440;5.644;2022-08-19T11:39:19;27.00;99.90
53294;DHT22;39181;53.440;5.644;2022-08-19T11:41:45;26.80;99.90
53294;DHT22;39181;53.440;5.644;2022-08-19T11:44:11;26.80;99.90
53294;DHT22;39181;53.440;5.644;2022-08-19T11:46:40;26.70;99.90
53294;DHT22;39181;53.440;5.644;2022-08-19T11:49:06;26.50;99.90
53294;DHT22;39181;53.440;5.644;2022-08-19T11:51:33;26.40;99.90
53294;DHT22;39181;53.440;5.644;2022-08-19T11:53:59;26.20;99.90
53294;DHT22;39181;53.440;5.644;2022-08-19T11:56:26;26.20;99.90
53294;DHT22;39181;53.440;5.644;2022-08-19T11:58:53;26.10;99.90
53294;DHT22;39181;53.440;5.644;2022-08-19T12:01:21;25.90;99.90
53294;DHT22;39181;53.440;5.644;2022-08-19T12:03:49;26.00;99.90
53294;DHT22;39181;53.440;5.644;2022-08-19T12:06:21;25.90;99.90
53294;DHT22;39181;53.440;5.644;2022-08-19T12:08:49;25.90;99.90
53294;DHT22;39181;53.440;5.644;2022-08-19T12:11:15;25.80;99.90
53294;DHT22;39181;53.440;5.644;2022-08-19T12:13:42;25.70;99.90
53294;DHT22;39181;53.440;5.644;2022-08-19T12:16:22;25.70;99.90
53294;DHT22;39181;53.440;5.644;2022-08-19T12:18:49;25.70;99.90
53294;DHT22;39181;53.440;5.644;2022-08-19T12:21:19;25.60;99.90
53294;DHT22;39181;53.440;5.644;2022-08-19T12:23:48;25.70;99.90
53294;DHT22;39181;53.440;5.644;2022-08-19T12:26:14;25.70;99.90
53294;DHT22;39181;53.440;5.644;2022-08-19T12:28:40;25.70;99.90
53294;DHT22;39181;53.440;5.644;2022-08-19T12:31:07;25.60;99.90
53294;DHT22;39181;53.440;5.644;2022-08-19T12:33:32;25.60;99.90
53294;DHT22;39181;53.440;5.644;2022-08-19T12:36:06;25.50;99.90
53294;DHT22;39181;53.440;5.644;2022-08-19T12:38:33;25.50;99.90
53294;DHT22;39181;53.440;5.644;2022-08-19T12:41:00;25.50;99.90
53294;DHT22;39181;53.440;5.644;2022-08-19T12:43:26;25.80;99.90
53294;DHT22;39181;53.440;5.644;2022-08-19T12:45:52;26.30;99.90
53294;DHT22;39181;53.440;5.644;2022-08-19T12:48:17;26.50;99.90
53294;DHT22;39181;53.440;5.644;2022-08-19T12:50:44;26.80;99.90
53294;DHT22;39181;53.440;5.644;2022-08-19T12:53:13;26.80;99.90
53294;DHT22;39181;53.440;5.644;2022-08-19T12:55:40;26.80;99.90
53294;DHT22;39181;53.440;5.644;2022-08-19T12:58:06;26.80;99.90
53294;DHT22;39181;53.440;5.644;2022-08-19T13:00:31;26.70;99.90
53294;DHT22;39181;53.440;5.644;2022-08-19T13:02:58;26.70;99.90
53294;DHT22;39181;53.440;5.644;2022-08-19T13:05:28;26.50;99.90
53294;DHT22;39181;53.440;5.644;2022-08-19T13:07:56;26.60;99.90
53294;DHT22;39181;53.440;5.644;2022-08-19T13:10:24;26.50;99.90
53294;DHT22;39181;53.440;5.644;2022-08-19T13:12:51;26.50;99.90
53294;DHT22;39181;53.440;5.644;2022-08-19T13:15:19;26.40;99.90
53294;DHT22;39181;53.440;5.644;2022-08-19T13:17:49;26.40;99.90
53294;DHT22;39181;53.440;5.644;2022-08-19T13:20:17;26.30;99.90
53294;DHT22;39181;53.440;5.644;2022-08-19T13:22:44;26.20;99.90
53294;DHT22;39181;53.440;5.644;2022-08-19T13:25:11;26.10;99.90
53294;DHT22;39181;53.440;5.644;2022-08-19T13:27:37;26.20;99.90
53294;DHT22;39181;53.440;5.644;2022-08-19T13:30:04;26.10;99.90
53294;DHT22;39181;53.440;5.644;2022-08-19T13:32:49;26.10;99.90
53294;DHT22;39181;53.440;5.644;2022-08-19T13:35:33;26.10;99.90
53294;DHT22;39181;53.440;5.644;2022-08-19T13:37:59;26.10;99.90
53294;DHT22;39181;53.440;5.644;2022-08-19T13:40:26;25.90;99.90
53294;DHT22;39181;53.440;5.644;2022-08-19T13:42:53;25.90;99.90
53294;DHT22;39181;53.440;5.644;2022-08-19T13:45:22;25.80;99.90
53294;DHT22;39181;53.440;5.644;2022-08-19T13:47:49;25.70;99.90
53294;DHT22;39181;53.440;5.644;2022-08-19T13:50:17;25.70;99.90
53294;DHT22;39181;53.440;5.644;2022-08-19T13:52:43;25.50;99.90
53294;DHT22;39181;53.440;5.644;2022-08-19T13:55:10;25.40;99.90
53294;DHT22;39181;53.440;5.644;2022-08-19T13:57:36;25.40;99.90
53294;DHT22;39181;53.440;5.644;2022-08-19T14:00:08;25.30;99.90
53294;DHT22;39181;53.440;5.644;2022-08-19T14:02:36;25.20;99.90
53294;DHT22;39181;53.440;5.644;2022-08-19T14:05:04;25.10;99.90
53294;DHT22;39181;53.440;5.644;2022-08-19T14:07:30;25.10;99.90
53294;DHT22;39181;53.440;5.644;2022-08-19T14:09:55;25.10;99.90
53294;DHT22;39181;53.440;5.644;2022-08-19T14:12:22;25.20;99.90
53294;DHT22;39181;53.440;5.644;2022-08-19T14:14:48;25.20;99.90
53294;DHT22;39181;53.440;5.644;2022-08-19T14:17:14;25.20;99.90
53294;DHT22;39181;53.440;5.644;2022-08-19T14:19:40;25.40;99.90
53294;DHT22;39181;53.440;5.644;2022-08-19T14:22:06;25.20;99.90
53294;DHT22;39181;53.440;5.644;2022-08-19T14:24:32;25.00;99.90
53294;DHT22;39181;53.440;5.644;2022-08-19T14:26:58;24.90;99.90
53294;DHT22;39181;53.440;5.644;2022-08-19T14:29:24;24.80;99.90
53294;DHT22;39181;53.440;5.644;2022-08-19T14:31:50;24.90;99.90
53294;DHT22;39181;53.440;5.644;2022-08-19T14:34:16;24.90;99.90
53294;DHT22;39181;53.440;5.644;2022-08-19T14:36:41;24.90;99.90
53294;DHT22;39181;53.440;5.644;2022-08-19T14:39:08;24.90;99.90
53294;DHT22;39181;53.440;5.644;2022-08-19T14:41:35;24.90;99.90
53294;DHT22;39181;53.440;5.644;2022-08-19T14:44:01;24.80;99.90
53294;DHT22;39181;53.440;5.644;2022-08-19T14:46:28;24.80;99.90
53294;DHT22;39181;53.440;5.644;2022-08-19T14:48:55;24.80;99.90
53294;DHT22;39181;53.440;5.644;2022-08-19T14:51:22;24.70;99.90
53294;DHT22;39181;53.440;5.644;2022-08-19T14:53:49;24.80;99.90
53294;DHT22;39181;53.440;5.644;2022-08-19T14:56:19;24.70;99.90
53294;DHT22;39181;53.440;5.644;2022-08-19T14:58:45;24.60;99.90
53294;DHT22;39181;53.440;5.644;2022-08-19T15:01:11;24.60;99.90
53294;DHT22;39181;53.440;5.644;2022-08-19T15:03:38;24.40;99.90
53294;DHT22;39181;53.440;5.644;2022-08-19T15:06:07;24.50;99.90
53294;DHT22;39181;53.440;5.644;2022-08-19T15:08:35;24.40;99.90
53294;DHT22;39181;53.440;5.644;2022-08-19T15:11:02;24.30;99.90
53294;DHT22;39181;53.440;5.644;2022-08-19T15:13:29;24.20;99.90
53294;DHT22;39181;53.440;5.644;2022-08-19T15:15:56;24.10;99.90
53294;DHT22;39181;53.440;5.644;2022-08-19T15:18:22;24.20;99.90
53294;DHT22;39181;53.440;5.644;2022-08-19T15:20:49;24.20;99.90
53294;DHT22;39181;53.440;5.644;2022-08-19T15:23:17;24.20;99.90
53294;DHT22;39181;53.440;5.644;2022-08-19T15:25:43;24.20;99.90
53294;DHT22;39181;53.440;5.644;2022-08-19T15:28:10;24.20;99.90
53294;DHT22;39181;53.440;5.644;2022-08-19T15:30:40;24.20;99.90
53294;DHT22;39181;53.440;5.644;2022-08-19T15:33:06;24.20;99.90
53294;DHT22;39181;53.440;5.644;2022-08-19T15:35:33;24.20;99.90
53294;DHT22;39181;53.440;5.644;2022-08-19T15:37:58;24.20;99.90
53294;DHT22;39181;53.440;5.644;2022-08-19T15:40:25;24.10;99.90
53294;DHT22;39181;53.440;5.644;2022-08-19T15:42:52;24.00;99.90
53294;DHT22;39181;53.440;5.644;2022-08-19T15:45:20;24.00;99.90